createdAt,value
2022-10-13T00:00:57.738Z,13.25
2022-10-13T00:03:01.714Z,12.13
2022-10-13T00:05:04.837Z,13.33
2022-10-13T00:07:08.918Z,13.26
2022-10-13T00:09:11.718Z,13.28
2022-10-13T00:11:16.896Z,12.63
2022-10-13T00:13:20.218Z,13.30
2022-10-13T00:15:25.842Z,12.70
2022-10-13T00:17:28.492Z,13.31
2022-10-13T00:19:31.721Z,13.32
2022-10-13T00:21:34.422Z,13.31
2022-10-13T00:23:38.821Z,13.35
2022-10-13T00:25:43.266Z,13.29
2022-10-13T00:27:46.042Z,13.32
2022-10-13T00:29:48.810Z,11.97
2022-10-13T00:31:51.608Z,12.82
2022-10-13T00:33:54.758Z,13.27
2022-10-13T00:35:57.590Z,12.14
2022-10-13T00:38:00.381Z,13.30
2022-10-13T00:40:09.414Z,13.33
2022-10-13T00:42:13.651Z,13.30
2022-10-13T00:44:54.889Z,13.26
2022-10-13T00:46:57.729Z,13.27
2022-10-13T00:49:03.247Z,13.31
2022-10-13T00:51:06.711Z,13.29
2022-10-13T00:53:11.635Z,13.33
2022-10-13T00:55:19.067Z,13.37
2022-10-13T00:57:22.065Z,12.57
2022-10-13T00:59:28.933Z,13.34
2022-10-13T01:01:32.651Z,13.37
2022-10-13T01:03:36.253Z,13.37
2022-10-13T01:05:40.685Z,13.33
2022-10-13T01:07:44.696Z,12.62
2022-10-13T01:09:47.416Z,13.40
2022-10-13T01:12:05.641Z,13.40
2022-10-13T01:14:15.306Z,13.41
2022-10-13T01:16:29.262Z,12.93
2022-10-13T01:18:40.351Z,13.34
2022-10-13T01:21:11.207Z,10.50
2022-10-13T01:23:31.563Z,13.30
2022-10-13T01:25:57.447Z,13.28
2022-10-13T01:28:23.013Z,13.23
2022-10-13T01:30:27.285Z,13.17
2022-10-13T01:32:34.395Z,13.24
2022-10-13T01:34:45.119Z,13.24
2022-10-13T01:36:58.906Z,13.17
2022-10-13T01:39:08.601Z,13.00
2022-10-13T01:41:18.246Z,11.65
2022-10-13T01:43:24.626Z,13.16
2022-10-13T01:45:33.484Z,13.15
2022-10-13T01:47:37.549Z,13.20
2022-10-13T01:49:41.062Z,12.78
2022-10-13T01:51:45.549Z,13.13
2022-10-13T01:53:49.262Z,12.41
2022-10-13T01:55:53.528Z,13.05
2022-10-13T01:57:56.365Z,12.27
2022-10-13T01:59:59.941Z,13.04
2022-10-13T02:02:13.548Z,13.02
2022-10-13T02:04:27.105Z,13.05
2022-10-13T02:06:33.993Z,12.71
2022-10-13T02:08:41.339Z,13.09
2022-10-13T02:10:52.346Z,12.27
2022-10-13T02:13:00.764Z,12.19
2022-10-13T02:15:05.788Z,13.03
2022-10-13T02:17:11.305Z,13.01
2022-10-13T02:19:18.196Z,12.41
2022-10-13T02:21:20.944Z,13.08
2022-10-13T02:23:25.587Z,12.64
2022-10-13T02:25:29.429Z,13.06
2022-10-13T02:27:34.576Z,11.38
2022-10-13T02:29:50.179Z,13.04
2022-10-13T02:31:54.710Z,13.07
2022-10-13T02:33:58.830Z,13.07
2022-10-13T02:36:01.561Z,13.13
2022-10-13T02:38:04.490Z,13.17
2022-10-13T02:40:08.446Z,13.17
2022-10-13T02:42:11.381Z,13.21
2022-10-13T02:44:14.082Z,13.09
2022-10-13T02:46:16.996Z,12.70
2022-10-13T02:48:20.207Z,12.25
2022-10-13T02:50:24.387Z,13.15
2022-10-13T02:52:27.288Z,13.01
2022-10-13T02:54:30.082Z,12.31
2022-10-13T02:56:32.891Z,13.06
2022-10-13T02:58:35.655Z,12.96
2022-10-13T03:00:39.659Z,12.53
2022-10-13T03:02:42.718Z,12.87
2022-10-13T03:04:45.792Z,10.03
2022-10-13T03:06:49.910Z,12.81
2022-10-13T03:08:52.637Z,11.44
2022-10-13T03:10:57.441Z,12.72
2022-10-13T03:13:00.480Z,12.65
2022-10-13T03:15:03.257Z,12.52
2022-10-13T03:17:11.059Z,12.40
2022-10-13T03:19:16.011Z,12.38
2022-10-13T03:21:22.542Z,10.82
2022-10-13T03:23:27.196Z,10.97
2022-10-13T03:25:30.027Z,12.26
2022-10-13T03:27:33.005Z,12.20
2022-10-13T03:29:35.808Z,12.21
2022-10-13T03:31:38.576Z,12.17
2022-10-13T03:33:41.887Z,12.08
2022-10-13T03:35:44.655Z,11.41
2022-10-13T03:37:47.511Z,11.21
2022-10-13T03:39:51.644Z,11.97
2022-10-13T03:41:54.461Z,11.87
2022-10-13T03:43:57.192Z,11.31
2022-10-13T03:46:01.661Z,11.71
2022-10-13T03:48:04.669Z,11.75
2022-10-13T03:50:08.577Z,11.40
2022-10-13T03:52:11.480Z,11.41
2022-10-13T03:54:14.704Z,11.75
2022-10-13T03:56:26.267Z,11.39
2022-10-13T03:58:29.292Z,11.23
2022-10-13T04:00:32.011Z,11.83
2022-10-13T04:02:35.257Z,11.07
2022-10-13T04:04:39.095Z,11.43
2022-10-13T04:06:41.865Z,11.71
2022-10-13T04:08:45.026Z,11.67
2022-10-13T04:10:47.789Z,11.79
2022-10-13T04:12:51.854Z,11.87
2022-10-13T04:14:56.213Z,11.94
2022-10-13T04:16:58.904Z,11.89
2022-10-13T04:19:04.049Z,11.86
2022-10-13T04:21:10.154Z,11.93
2022-10-13T04:23:12.861Z,11.77
2022-10-13T04:25:24.156Z,11.73
2022-10-13T04:27:27.008Z,11.83
2022-10-13T04:29:31.679Z,11.47
2022-10-13T04:31:34.923Z,11.92
2022-10-13T04:33:37.651Z,12.03
2022-10-13T04:35:41.437Z,12.06
2022-10-13T04:37:45.193Z,11.31
2022-10-13T04:39:48.316Z,12.15
2022-10-13T04:41:51.073Z,12.02
2022-10-13T04:43:54.778Z,11.24
2022-10-13T04:46:02.935Z,12.17
2022-10-13T04:48:05.940Z,12.27
2022-10-13T04:50:09.783Z,12.16
2022-10-13T04:52:12.555Z,12.26
2022-10-13T04:54:15.334Z,12.32
2022-10-13T04:56:19.222Z,12.19
2022-10-13T04:58:22.176Z,12.23
2022-10-13T05:00:24.939Z,12.16
2022-10-13T05:02:29.186Z,12.02
2022-10-13T05:04:31.837Z,11.98
2022-10-13T05:06:48.565Z,11.89
2022-10-13T05:08:59.623Z,11.87
2022-10-13T05:11:03.945Z,11.06
2022-10-13T05:13:09.490Z,11.32
2022-10-13T05:15:12.489Z,11.59
2022-10-13T05:17:15.548Z,11.65
2022-10-13T05:19:20.217Z,11.81
2022-10-13T05:21:27.087Z,11.85
2022-10-13T05:23:29.735Z,11.94
2022-10-13T05:25:33.974Z,11.76
2022-10-13T05:27:36.924Z,11.64
2022-10-13T05:29:42.301Z,11.82
2022-10-13T05:31:44.994Z,11.96
2022-10-13T05:33:48.994Z,11.90
2022-10-13T05:36:06.238Z,11.88
2022-10-13T05:38:12.032Z,11.59
2022-10-13T05:40:15.339Z,11.67
2022-10-13T05:42:18.367Z,11.37
2022-10-13T05:44:22.052Z,10.35
2022-10-13T05:46:31.245Z,11.75
2022-10-13T05:48:33.884Z,11.91
2022-10-13T05:50:37.280Z,12.06
2022-10-13T05:52:42.975Z,11.71
2022-10-13T05:54:49.292Z,12.15
2022-10-13T05:56:57.986Z,11.87
2022-10-13T05:59:06.878Z,11.84
2022-10-13T06:01:12.958Z,12.00
2022-10-13T06:03:18.771Z,10.82
2022-10-13T06:05:23.866Z,12.13
2022-10-13T06:07:30.043Z,12.11
2022-10-13T06:09:37.736Z,12.16
2022-10-13T06:11:40.472Z,12.23
2022-10-13T06:13:43.215Z,12.32
2022-10-13T06:15:45.933Z,12.35
2022-10-13T06:17:48.671Z,12.37
2022-10-13T06:19:51.455Z,12.43
2022-10-13T06:21:54.315Z,12.46
2022-10-13T06:23:57.187Z,12.47
2022-10-13T06:26:01.234Z,12.44
2022-10-13T06:28:04.299Z,12.46
2022-10-13T06:30:08.303Z,12.47
2022-10-13T06:32:12.861Z,11.72
2022-10-13T06:34:15.719Z,12.49
2022-10-13T06:36:20.551Z,12.48
2022-10-13T06:38:23.295Z,12.46
2022-10-13T06:40:26.138Z,12.24
2022-10-13T06:42:31.760Z,12.52
2022-10-13T06:44:46.308Z,12.47
2022-10-13T06:46:49.129Z,12.51
2022-10-13T06:48:52.249Z,12.47
2022-10-13T06:50:56.722Z,12.54
2022-10-13T06:52:59.461Z,12.52
2022-10-13T06:55:02.145Z,12.53
2022-10-13T06:57:06.907Z,11.27
2022-10-13T06:59:11.817Z,12.57
2022-10-13T07:01:15.379Z,11.88
2022-10-13T07:03:18.235Z,12.66
2022-10-13T07:05:20.943Z,12.64
2022-10-13T07:07:23.660Z,12.29
2022-10-13T07:09:26.350Z,12.71
2022-10-13T07:11:29.065Z,12.76
2022-10-13T07:13:34.993Z,12.74
2022-10-13T07:15:41.923Z,12.81
2022-10-13T07:17:45.874Z,12.70
2022-10-13T07:19:49.272Z,12.82
2022-10-13T07:21:52.019Z,12.85
2022-10-13T07:23:56.180Z,12.91
2022-10-13T07:25:59.388Z,11.25
2022-10-13T07:28:02.078Z,13.03
2022-10-13T07:30:05.869Z,13.06
2022-10-13T07:32:09.917Z,13.08
2022-10-13T07:34:14.083Z,13.05
2022-10-13T07:36:17.124Z,13.06
2022-10-13T07:38:19.912Z,13.02
2022-10-13T07:40:24.047Z,12.57
2022-10-13T07:42:26.789Z,13.09
2022-10-13T07:44:29.629Z,12.02
2022-10-13T07:46:32.454Z,13.26
2022-10-13T07:48:37.074Z,13.37
2022-10-13T07:50:39.798Z,12.25
2022-10-13T07:52:42.497Z,13.47
2022-10-13T07:54:47.658Z,13.56
2022-10-13T07:56:52.426Z,12.94
2022-10-13T07:58:55.447Z,13.71
2022-10-13T08:00:59.486Z,13.80
2022-10-13T08:03:02.542Z,13.00
2022-10-13T08:05:07.284Z,13.79
2022-10-13T08:07:10.234Z,13.86
2022-10-13T08:09:13.011Z,13.88
2022-10-13T08:11:17.747Z,13.89
2022-10-13T08:13:20.606Z,13.97
2022-10-13T08:15:23.319Z,13.37
2022-10-13T08:17:26.061Z,13.82
2022-10-13T08:19:29.233Z,13.79
2022-10-13T08:23:55.990Z,13.92
2022-10-13T08:25:58.973Z,13.92
2022-10-13T08:28:01.700Z,13.89
2022-10-13T08:30:05.078Z,13.97
2022-10-13T08:32:08.515Z,13.77
2022-10-13T08:34:11.935Z,13.91
2022-10-13T08:36:15.205Z,14.07
2022-10-13T08:38:19.453Z,14.09
2022-10-13T08:40:23.769Z,13.57
2022-10-13T08:42:26.503Z,14.04
2022-10-13T08:47:10.227Z,14.16
2022-10-13T08:49:15.556Z,14.13
2022-10-13T08:51:18.617Z,13.28
2022-10-13T08:53:29.043Z,14.22
2022-10-13T08:55:36.481Z,13.19
2022-10-13T08:57:41.677Z,14.02
2022-10-13T08:59:44.509Z,14.29
2022-10-13T09:01:49.322Z,14.32
2022-10-13T09:03:54.613Z,14.43
2022-10-13T09:06:11.571Z,14.45
2022-10-13T09:08:20.254Z,13.96
2022-10-13T09:10:24.617Z,14.29
2022-10-13T09:12:28.057Z,14.19
2022-10-13T09:14:33.102Z,14.30
2022-10-13T09:16:38.444Z,14.35
2022-10-13T09:18:45.254Z,14.38
2022-10-13T09:20:50.924Z,13.67
2022-10-13T09:23:05.155Z,14.48
2022-10-13T09:25:11.520Z,14.49
2022-10-13T09:27:17.296Z,13.97
2022-10-13T09:29:22.204Z,14.31
2022-10-13T09:31:27.447Z,14.76
2022-10-13T09:33:30.300Z,13.15
2022-10-13T09:35:34.910Z,14.94
2022-10-13T09:37:37.786Z,14.90
2022-10-13T09:39:40.461Z,14.61
2022-10-13T09:41:44.825Z,14.94
2022-10-13T09:44:05.739Z,15.10
2022-10-13T09:46:14.833Z,15.27
2022-10-13T09:48:22.474Z,15.55
2022-10-13T09:50:28.094Z,14.27
2022-10-13T09:52:30.849Z,14.78
2022-10-13T09:54:46.558Z,15.38
2022-10-13T09:56:55.044Z,15.56
2022-10-13T09:59:07.689Z,15.80
2022-10-13T10:01:20.211Z,15.65
2022-10-13T10:03:25.602Z,13.44
2022-10-13T10:05:33.493Z,15.69
2022-10-13T10:07:36.172Z,16.00
2022-10-13T10:09:41.128Z,13.91
2022-10-13T10:11:48.994Z,16.03
2022-10-13T10:13:52.618Z,16.05
2022-10-13T10:16:03.005Z,16.12
2022-10-13T10:18:09.772Z,16.19
2022-10-13T10:20:33.476Z,15.48
2022-10-13T10:22:41.072Z,16.26
2022-10-13T10:24:51.532Z,16.27
2022-10-13T10:26:57.887Z,16.26
2022-10-13T10:29:17.074Z,16.22
2022-10-13T10:31:37.853Z,14.91
2022-10-13T10:33:54.998Z,16.21
2022-10-13T10:36:03.602Z,16.31
2022-10-13T10:38:21.478Z,16.43
2022-10-13T10:40:37.848Z,16.63
2022-10-13T10:43:04.189Z,16.33
2022-10-13T10:45:16.882Z,15.38
2022-10-13T10:47:26.423Z,16.62
2022-10-13T10:49:32.431Z,16.59
2022-10-13T10:51:38.981Z,16.56
2022-10-13T10:53:53.367Z,16.44
2022-10-13T10:56:03.013Z,16.57
2022-10-13T10:58:19.842Z,16.73
2022-10-13T11:00:23.929Z,16.78
2022-10-13T11:02:42.767Z,16.11
2022-10-13T11:04:46.662Z,16.94
2022-10-13T11:06:49.415Z,15.38
2022-10-13T11:08:52.156Z,17.15
2022-10-13T11:11:33.415Z,17.20
2022-10-13T11:13:52.772Z,16.44
2022-10-13T11:15:55.630Z,17.27
2022-10-13T11:17:59.917Z,17.21
2022-10-13T11:20:41.193Z,17.28
2022-10-13T11:23:34.303Z,16.94
2022-10-13T11:25:40.580Z,17.42
2022-10-13T11:27:45.142Z,17.26
2022-10-13T11:29:58.035Z,17.56
2022-10-13T11:32:00.793Z,17.51
2022-10-13T11:34:26.884Z,17.35
2022-10-13T11:36:48.737Z,17.43
2022-10-13T11:39:00.160Z,17.57
2022-10-13T11:41:16.704Z,17.64
2022-10-13T11:43:32.564Z,17.87
2022-10-13T11:46:00.944Z,17.96
2022-10-13T11:48:34.102Z,17.97
2022-10-13T11:50:44.199Z,16.77
2022-10-13T11:53:06.471Z,15.33
2022-10-13T11:55:16.243Z,18.18
2022-10-13T11:57:22.249Z,17.92
2022-10-13T11:59:27.501Z,18.52
2022-10-13T12:01:31.374Z,18.74
2022-10-13T12:03:36.709Z,18.88
2022-10-13T12:05:43.608Z,19.01
2022-10-13T12:07:48.628Z,19.12
2022-10-13T12:09:53.564Z,19.16
2022-10-13T12:12:01.446Z,19.15
2022-10-13T12:14:07.745Z,19.18
2022-10-13T12:16:14.540Z,19.27
2022-10-13T12:18:24.547Z,19.39
2022-10-13T12:20:29.321Z,19.47
2022-10-13T12:22:36.811Z,19.70
2022-10-13T12:24:42.910Z,19.74
2022-10-13T12:26:45.664Z,19.83
2022-10-13T12:28:51.871Z,19.77
2022-10-13T12:30:57.020Z,19.69
2022-10-13T12:33:01.113Z,19.66
2022-10-13T12:35:19.608Z,19.82
2022-10-13T12:37:30.927Z,19.84
2022-10-13T12:39:36.717Z,19.73
2022-10-13T12:41:43.728Z,19.72
2022-10-13T12:43:47.531Z,19.41
2022-10-13T12:45:50.432Z,19.91
2022-10-13T12:47:54.656Z,20.11
2022-10-13T12:50:22.406Z,19.77
2022-10-13T12:52:26.098Z,17.84
2022-10-13T12:54:32.339Z,19.75
2022-10-13T12:56:37.021Z,19.63
2022-10-13T12:58:44.477Z,19.60
2022-10-13T13:00:56.793Z,19.18
2022-10-13T13:03:01.685Z,18.60
2022-10-13T13:05:04.495Z,19.37
2022-10-13T13:07:27.724Z,19.19
2022-10-13T13:09:32.227Z,18.82
2022-10-13T13:11:38.173Z,18.93
2022-10-13T13:13:42.438Z,18.98
2022-10-13T13:15:45.423Z,18.66
2022-10-13T13:18:03.564Z,18.68
2022-10-13T13:20:20.311Z,18.28
2022-10-13T13:22:23.314Z,18.90
2022-10-13T13:24:36.075Z,18.85
2022-10-13T13:26:48.365Z,18.66
2022-10-13T13:28:53.041Z,18.73
2022-10-13T13:30:55.914Z,18.74
2022-10-13T13:32:58.706Z,18.74
2022-10-13T13:35:01.487Z,18.63
2022-10-13T13:37:04.262Z,18.55
2022-10-13T13:39:07.770Z,18.51
2022-10-13T13:41:11.884Z,18.63
2022-10-13T13:43:15.933Z,18.69
2022-10-13T13:45:20.976Z,18.57
2022-10-13T13:47:27.789Z,18.73
2022-10-13T13:49:30.618Z,18.36
2022-10-13T13:51:33.464Z,18.65
2022-10-13T13:53:36.220Z,18.67
2022-10-13T13:55:39.078Z,18.57
2022-10-13T13:57:43.721Z,18.49
2022-10-13T13:59:47.842Z,18.40
2022-10-13T14:01:50.539Z,18.34
2022-10-13T14:03:57.924Z,18.28
2022-10-13T14:06:00.937Z,18.30
2022-10-13T14:08:04.295Z,18.27
2022-10-13T14:10:09.020Z,18.22
2022-10-13T14:12:11.886Z,18.30
2022-10-13T14:14:14.628Z,17.92
2022-10-13T14:16:18.869Z,17.76
2022-10-13T14:18:21.603Z,18.29
2022-10-13T14:20:24.395Z,17.92
2022-10-13T14:22:27.457Z,17.53
2022-10-13T14:24:30.308Z,17.55
2022-10-13T14:26:33.734Z,17.52
2022-10-13T14:28:36.466Z,17.31
2022-10-13T14:30:40.706Z,16.19
2022-10-13T14:32:44.834Z,17.70
2022-10-13T14:34:47.626Z,17.67
2022-10-13T14:36:50.316Z,16.92
2022-10-13T14:38:54.934Z,17.50
2022-10-13T14:41:01.222Z,16.74
2022-10-13T14:43:04.016Z,15.69
2022-10-13T14:45:08.251Z,17.30
2022-10-13T14:47:10.983Z,17.57
2022-10-13T14:49:15.281Z,17.47
2022-10-13T14:51:18.728Z,17.31
2022-10-13T14:53:21.479Z,17.27
2022-10-13T14:55:24.203Z,17.49
2022-10-13T14:57:26.912Z,16.79
2022-10-13T14:59:29.939Z,17.02
2022-10-13T15:01:33.525Z,17.04
2022-10-13T15:03:36.329Z,17.16
2022-10-13T15:05:40.728Z,17.17
2022-10-13T15:07:43.429Z,16.98
2022-10-13T15:10:00.503Z,16.82
2022-10-13T15:12:07.239Z,17.19
2022-10-13T15:14:10.749Z,16.59
2022-10-13T15:16:17.330Z,16.89
2022-10-13T15:18:20.123Z,16.93
2022-10-13T15:20:23.081Z,16.76
2022-10-13T15:22:27.390Z,16.81
2022-10-13T15:24:30.205Z,16.81
2022-10-13T15:26:37.877Z,16.98
2022-10-13T15:28:42.649Z,16.07
2022-10-13T15:30:46.525Z,16.67
2022-10-13T15:32:51.178Z,16.74
2022-10-13T15:34:54.454Z,16.74
2022-10-13T15:36:57.183Z,16.83
2022-10-13T15:39:01.403Z,16.91
2022-10-13T15:41:06.326Z,16.67
2022-10-13T15:43:09.529Z,16.56
2022-10-13T15:45:12.273Z,16.53
2022-10-13T15:47:17.182Z,16.63
2022-10-13T15:49:20.316Z,16.05
2022-10-13T15:51:26.862Z,15.96
2022-10-13T15:53:30.733Z,16.06
2022-10-13T15:55:35.017Z,16.24
2022-10-13T15:57:38.131Z,16.14
2022-10-13T15:59:40.899Z,16.12
2022-10-13T16:01:43.639Z,16.32
2022-10-13T16:03:46.349Z,16.07
2022-10-13T16:05:49.053Z,16.11
2022-10-13T16:07:51.779Z,15.74
2022-10-13T16:09:54.529Z,16.04
2022-10-13T16:11:58.571Z,16.12
2022-10-13T16:14:01.336Z,15.88
2022-10-13T16:16:04.072Z,15.62
2022-10-13T16:18:07.033Z,15.87
2022-10-13T16:20:11.543Z,15.85
2022-10-13T16:22:14.352Z,15.94
2022-10-13T16:24:17.084Z,15.92
2022-10-13T16:26:22.261Z,14.73
2022-10-13T16:28:26.437Z,15.72
2022-10-13T16:30:30.384Z,15.51
2022-10-13T16:32:38.868Z,14.74
2022-10-13T16:34:41.598Z,15.47
2022-10-13T16:36:44.310Z,14.66
2022-10-13T16:38:48.182Z,15.50
2022-10-13T16:40:50.914Z,15.60
2022-10-13T16:42:53.638Z,15.43
2022-10-13T16:44:57.749Z,15.11
2022-10-13T16:47:04.812Z,15.19
2022-10-13T16:49:07.607Z,15.66
2022-10-13T16:51:13.427Z,15.39
2022-10-13T16:53:16.138Z,15.34
2022-10-13T16:55:18.796Z,14.26
2022-10-13T16:57:21.765Z,15.26
2022-10-13T16:59:25.230Z,14.97
2022-10-13T17:01:30.230Z,14.98
2022-10-13T17:03:33.272Z,14.73
2022-10-13T17:05:35.995Z,14.89
2022-10-13T17:07:39.068Z,14.57
2022-10-13T17:09:41.816Z,14.98
2022-10-13T17:11:44.652Z,15.16
2022-10-13T17:13:47.859Z,14.91
2022-10-13T17:15:51.690Z,15.14
2022-10-13T17:17:56.500Z,15.13
2022-10-13T17:19:59.235Z,15.05
2022-10-13T17:22:02.013Z,15.00
2022-10-13T17:24:05.065Z,14.98
2022-10-13T17:26:14.007Z,14.93
2022-10-13T17:28:17.190Z,14.82
2022-10-13T17:30:20.056Z,13.72
2022-10-13T17:32:23.208Z,13.93
2022-10-13T17:34:27.342Z,14.66
2022-10-13T17:36:32.222Z,13.66
2022-10-13T17:38:37.136Z,14.77
2022-10-13T17:40:39.841Z,14.56
2022-10-13T17:42:42.525Z,14.59
2022-10-13T17:44:45.231Z,14.52
2022-10-13T17:46:48.635Z,13.15
2022-10-13T17:48:51.638Z,14.76
2022-10-13T17:50:55.700Z,14.72
2022-10-13T17:52:58.442Z,14.49
2022-10-13T17:55:04.444Z,13.12
2022-10-13T17:57:07.151Z,12.26
2022-10-13T17:59:10.248Z,14.67
2022-10-13T18:01:14.970Z,14.73
2022-10-13T18:03:17.739Z,14.68
2022-10-13T18:05:20.475Z,14.76
2022-10-13T18:07:24.642Z,14.73
2022-10-13T18:09:27.418Z,14.72
2022-10-13T18:11:30.483Z,14.76
2022-10-13T18:13:33.565Z,14.78
2022-10-13T18:15:37.035Z,14.75
2022-10-13T18:17:39.766Z,14.77
2022-10-13T18:19:42.889Z,13.19
2022-10-13T18:21:45.634Z,13.95
2022-10-13T18:23:50.033Z,14.23
2022-10-13T18:25:52.801Z,14.67
2022-10-13T18:27:57.051Z,14.38
2022-10-13T18:30:00.131Z,14.58
2022-10-13T18:32:05.236Z,13.98
2022-10-13T18:34:10.194Z,14.45
2022-10-13T18:36:16.043Z,14.25
2022-10-13T18:38:20.029Z,13.99
2022-10-13T18:40:24.437Z,14.32
2022-10-13T18:42:27.646Z,14.18
2022-10-13T18:44:30.373Z,13.65
2022-10-13T18:46:33.898Z,14.18
2022-10-13T18:48:36.711Z,13.90
2022-10-13T18:50:40.184Z,14.13
2022-10-13T18:52:42.857Z,12.65
2022-10-13T18:54:46.297Z,14.03
2022-10-13T18:56:50.382Z,14.36
2022-10-13T18:58:59.140Z,13.96
2022-10-13T19:01:04.176Z,13.11
2022-10-13T19:03:07.050Z,14.27
2022-10-13T19:05:10.773Z,13.07
2022-10-13T19:07:13.539Z,14.30
2022-10-13T19:09:17.344Z,13.94
2022-10-13T19:11:21.881Z,14.13
2022-10-13T19:13:26.662Z,13.62
2022-10-13T19:15:29.469Z,14.21
2022-10-13T19:17:33.467Z,13.78
2022-10-13T19:19:36.211Z,14.25
2022-10-13T19:21:39.613Z,12.41
2022-10-13T19:23:45.033Z,14.37
2022-10-13T19:25:57.167Z,13.36
2022-10-13T19:27:59.985Z,14.15
2022-10-13T19:30:04.668Z,14.23
2022-10-13T19:32:07.866Z,14.31
2022-10-13T19:34:12.349Z,13.98
2022-10-13T19:36:22.457Z,14.30
2022-10-13T19:38:25.097Z,13.36
2022-10-13T19:40:27.734Z,14.24
2022-10-13T19:42:30.366Z,14.28
2022-10-13T19:44:33.533Z,14.10
2022-10-13T19:46:38.102Z,14.15
2022-10-13T19:48:40.892Z,14.08
2022-10-13T19:50:43.726Z,13.99
2022-10-13T19:52:49.122Z,14.01
2022-10-13T19:54:51.879Z,13.72
2022-10-13T19:56:55.062Z,13.84
2022-10-13T19:58:57.928Z,13.39
2022-10-13T20:01:03.469Z,13.81
2022-10-13T20:03:07.626Z,13.74
2022-10-13T20:05:11.807Z,13.84
2022-10-13T20:07:14.560Z,13.83
2022-10-13T20:09:18.501Z,13.84
2022-10-13T20:11:24.159Z,13.64
2022-10-13T20:13:27.367Z,13.18
2022-10-13T20:15:40.523Z,13.64
2022-10-13T20:17:43.410Z,13.42
2022-10-13T20:19:47.862Z,12.83
2022-10-13T20:21:51.702Z,13.49
2022-10-13T20:23:55.445Z,13.34
2022-10-13T20:26:02.065Z,11.86
2022-10-13T20:28:08.860Z,13.27
2022-10-13T20:30:12.625Z,13.21
2022-10-13T20:32:17.255Z,13.31
2022-10-13T20:34:20.003Z,13.26
2022-10-13T20:36:25.198Z,13.25
2022-10-13T20:38:29.673Z,13.28
2022-10-13T20:40:32.956Z,12.88
2022-10-13T20:42:35.710Z,13.31
2022-10-13T20:44:38.523Z,12.80
2022-10-13T20:46:41.237Z,13.21
2022-10-13T20:49:09.375Z,13.08
2022-10-13T20:51:11.413Z,13.21
2022-10-13T20:53:15.463Z,13.24
2022-10-13T20:55:19.202Z,13.23
2022-10-13T20:57:22.614Z,13.06
2022-10-13T20:59:26.367Z,13.12
2022-10-13T21:01:29.060Z,12.30
2022-10-13T21:03:32.042Z,13.02
2022-10-13T21:05:40.482Z,12.95
2022-10-13T21:07:43.180Z,12.97
2022-10-13T21:09:51.451Z,12.97
2022-10-13T21:11:56.253Z,12.50
2022-10-13T21:13:59.720Z,12.88
2022-10-13T21:16:07.450Z,12.85
2022-10-13T21:18:10.926Z,12.75
2022-10-13T21:20:15.832Z,12.63
2022-10-13T21:22:18.519Z,12.66
2022-10-13T21:24:21.288Z,12.64
2022-10-13T21:26:26.773Z,12.19
2022-10-13T21:28:29.753Z,12.66
2022-10-13T21:30:33.092Z,12.71
2022-10-13T21:32:35.813Z,12.62
2022-10-13T21:34:38.478Z,12.74
2022-10-13T21:36:44.330Z,12.78
2022-10-13T21:38:51.552Z,12.83
2022-10-13T21:40:54.632Z,12.90
2022-10-13T21:42:58.648Z,12.85
2022-10-13T21:45:01.515Z,12.70
2022-10-13T21:47:04.247Z,12.78
2022-10-13T21:49:07.136Z,12.78
2022-10-13T21:51:14.968Z,11.35
2022-10-13T21:53:17.804Z,12.36
2022-10-13T21:55:20.522Z,12.74
2022-10-13T21:57:24.040Z,12.46
2022-10-13T21:59:28.306Z,12.55
2022-10-13T22:01:31.325Z,12.62
2022-10-13T22:03:35.013Z,12.74
2022-10-13T22:05:38.180Z,11.71
2022-10-13T22:07:40.857Z,12.11
2022-10-13T22:09:43.553Z,11.19
2022-10-13T22:11:46.247Z,10.43
2022-10-13T22:13:48.999Z,12.42
2022-10-13T22:15:53.062Z,12.81
2022-10-13T22:17:56.317Z,12.20
2022-10-13T22:19:59.896Z,12.95
2022-10-13T22:22:03.088Z,12.79
2022-10-13T22:24:07.574Z,12.91
2022-10-13T22:26:10.891Z,13.02
2022-10-13T22:28:13.629Z,13.10
2022-10-13T22:30:18.164Z,13.15
2022-10-13T22:32:22.164Z,11.86
2022-10-13T22:34:25.431Z,13.18
2022-10-13T22:36:30.725Z,13.21
2022-10-13T22:38:33.431Z,11.46
2022-10-13T22:40:39.537Z,13.14
2022-10-13T22:42:42.241Z,12.86
2022-10-13T22:44:44.957Z,12.94
2022-10-13T22:46:47.617Z,13.05
2022-10-13T22:48:52.025Z,12.88
2022-10-13T22:50:54.879Z,13.17
2022-10-13T22:52:57.588Z,13.24
2022-10-13T22:55:00.363Z,13.29
2022-10-13T22:57:03.013Z,13.33
2022-10-13T22:59:07.966Z,13.34
2022-10-13T23:01:14.906Z,12.03
2022-10-13T23:03:18.098Z,13.42
2022-10-13T23:05:23.199Z,13.46
2022-10-13T23:07:25.917Z,9.96
2022-10-13T23:09:28.752Z,12.83
2022-10-13T23:11:31.497Z,13.03
2022-10-13T23:13:35.910Z,13.52
2022-10-13T23:15:40.157Z,13.53
2022-10-13T23:17:42.844Z,13.53
2022-10-13T23:19:45.547Z,13.55
2022-10-13T23:21:49.568Z,12.08
2022-10-13T23:23:57.179Z,13.37
2022-10-13T23:26:03.542Z,13.49
2022-10-13T23:28:06.392Z,13.44
2022-10-13T23:30:10.198Z,12.62
2022-10-13T23:32:12.928Z,13.00
2022-10-13T23:34:18.158Z,13.34
2022-10-13T23:36:22.549Z,13.43
2022-10-13T23:38:28.931Z,13.43
2022-10-13T23:40:31.649Z,13.39
2022-10-13T23:42:34.359Z,13.34
2022-10-13T23:44:37.083Z,12.46
2022-10-13T23:46:39.924Z,13.37
2022-10-13T23:48:46.117Z,13.38
2022-10-13T23:50:48.829Z,13.37
2022-10-13T23:52:51.524Z,13.40
2022-10-13T23:54:55.596Z,13.40
2022-10-13T23:56:59.826Z,13.40
2022-10-13T23:59:02.673Z,13.16
